Time;durP1;ratioP1;P1;durP2;ratioP2;P2;SDS_P1;SDS_P2;PMS_P1;PMS_P2;Temp;Humidity;BMP_temperature;BMP_pressure;BME280_temperature;BME280_humidity;BME280_pressure;Samples;Min_cycle;Max_cycle;Signal;HPM_P1;HPM_P2
2022/04/14 00:01:51;;;;;;;15.03;10.13;;;;;;;14.11;100.00;99378.98;1813708;79;22258;-60
2022/04/14 00:04:18;;;;;;;12.05;8.88;;;;;;;14.38;100.00;99378.53;1812935;77;21209;-59
2022/04/14 00:06:45;;;;;;;13.65;10.95;;;;;;;14.76;100.00;99371.49;1812521;79;21437;-59
2022/04/14 00:09:12;;;;;;;16.82;11.45;;;;;;;14.77;100.00;99375.70;1812635;79;21079;-57
2022/04/14 00:11:39;;;;;;;12.87;10.70;;;;;;;14.80;100.00;99376.55;1812589;79;21005;-57
2022/04/14 00:14:07;;;;;;;15.23;11.15;;;;;;;15.01;98.44;99380.39;1812022;79;21134;-58
2022/04/14 00:16:34;;;;;;;19.07;13.13;;;;;;;14.87;99.28;99375.91;1812706;79;21554;-59
2022/04/14 00:19:02;;;;;;;18.77;12.90;;;;;;;14.73;99.60;99373.27;1801774;79;21557;-57
2022/04/14 00:21:30;;;;;;;19.40;12.70;;;;;;;14.93;98.83;99371.06;1812559;79;21248;-58
2022/04/14 00:23:56;;;;;;;17.47;12.73;;;;;;;14.96;97.78;99371.09;1811990;79;21105;-57
2022/04/14 00:26:23;;;;;;;16.90;10.73;;;;;;;14.88;99.29;99371.45;1812386;79;21577;-58
2022/04/14 00:28:51;;;;;;;16.10;11.37;;;;;;;14.89;99.07;99371.25;1812842;79;21152;-59
2022/04/14 00:31:18;;;;;;;19.20;13.43;;;;;;;14.62;100.00;99372.77;1811962;79;21111;-59
2022/04/14 00:33:45;;;;;;;19.47;13.30;;;;;;;14.58;100.00;99372.43;1812374;79;21730;-60
2022/04/14 00:36:12;;;;;;;16.17;11.47;;;;;;;14.69;100.00;99376.86;1812482;77;21179;-58
2022/04/14 00:38:39;;;;;;;13.07;10.50;;;;;;;14.64;100.00;99375.97;1812520;78;22516;-58
2022/04/14 00:41:05;;;;;;;15.45;11.30;;;;;;;14.74;99.46;99371.73;1812326;79;21554;-57
2022/04/14 00:43:33;;;;;;;15.17;10.37;;;;;;;14.88;97.26;99375.39;1811963;79;21018;-60
2022/04/14 00:46:01;;;;;;;14.50;10.82;;;;;;;15.02;94.23;99374.90;1800573;79;21365;-60
2022/04/14 00:48:29;;;;;;;15.53;11.60;;;;;;;15.03;94.59;99368.61;1782002;79;20878;-57
2022/04/14 00:50:56;;;;;;;17.60;12.47;;;;;;;14.99;94.79;99368.80;1812463;79;22596;-57
2022/04/14 00:53:23;;;;;;;14.30;10.57;;;;;;;15.21;93.23;99357.66;1812881;79;21026;-60
2022/04/14 00:55:51;;;;;;;16.70;11.10;;;;;;;15.25;92.57;99368.77;1811986;79;21061;-58
2022/04/14 00:58:20;;;;;;;15.97;11.43;;;;;;;15.35;91.38;99367.37;1812312;79;21877;-58
2022/04/14 01:00:46;;;;;;;13.58;10.50;;;;;;;15.16;93.29;99372.02;1812378;79;21815;-57
2022/04/14 01:03:13;;;;;;;17.15;12.68;;;;;;;14.93;96.41;99371.06;1812516;79;21835;-58
2022/04/14 01:05:42;;;;;;;15.47;11.23;;;;;;;15.00;96.87;99377.47;1802079;78;20923;-58
2022/04/14 01:08:09;;;;;;;14.93;11.00;;;;;;;15.03;96.56;99375.69;1814117;79;21425;-57
2022/04/14 01:10:37;;;;;;;14.80;10.57;;;;;;;14.92;98.30;99377.31;1814563;79;21752;-57
2022/04/14 01:13:06;;;;;;;15.45;12.30;;;;;;;14.90;99.06;99382.02;1814274;78;21095;-58
2022/04/14 01:15:33;;;;;;;16.03;11.37;;;;;;;14.95;99.20;99377.38;1814246;79;21234;-59
2022/04/14 01:18:00;;;;;;;14.37;11.23;;;;;;;14.93;99.61;99378.94;1802154;79;21225;-58
2022/04/14 01:20:27;;;;;;;15.20;11.70;;;;;;;14.93;98.02;99386.02;1814271;79;22214;-59
2022/04/14 01:22:56;;;;;;;14.90;11.43;;;;;;;14.93;98.96;99383.39;1813041;79;21721;-57
2022/04/14 01:25:25;;;;;;;18.07;12.93;;;;;;;14.99;96.95;99357.51;1813806;79;21716;-57
2022/04/14 01:27:53;;;;;;;16.80;13.40;;;;;;;14.97;96.44;99388.45;1812781;78;21226;-59
2022/04/14 01:30:21;;;;;;;15.80;11.60;;;;;;;14.89;98.20;99388.79;1814291;79;22023;-59
2022/04/14 01:32:48;;;;;;;20.07;14.43;;;;;;;15.09;96.75;99374.77;1813805;79;21295;-57
2022/04/14 01:35:16;;;;;;;16.07;12.70;;;;;;;15.20;94.54;99377.08;1814159;79;21055;-58
2022/04/14 01:37:43;;;;;;;17.50;13.17;;;;;;;15.07;95.43;99378.13;1813978;79;21304;-57
2022/04/14 01:40:12;;;;;;;19.87;12.97;;;;;;;15.14;95.43;99369.61;1814040;79;22202;-62
2022/04/14 01:42:39;;;;;;;17.20;11.40;;;;;;;15.18;94.88;99372.56;1813842;79;21837;-57
2022/04/14 01:45:09;;;;;;;16.27;11.80;;;;;;;15.11;94.44;99368.75;1814905;79;21571;-57
2022/04/14 01:47:45;;;;;;;15.78;11.12;;;;;;;15.06;94.73;99376.02;1813658;79;21056;-58
2022/04/14 01:50:13;;;;;;;17.27;12.37;;;;;;;15.04;94.88;99380.72;1814183;79;21569;-59
2022/04/14 01:52:41;;;;;;;19.23;13.55;;;;;;;14.91;97.33;99380.19;1813638;79;21948;-58
2022/04/14 01:55:09;;;;;;;19.80;13.15;;;;;;;14.99;97.42;99385.86;1814360;79;21191;-58
2022/04/14 01:57:36;;;;;;;19.40;12.57;;;;;;;14.87;98.98;99390.86;1814361;79;20994;-57
2022/04/14 02:00:06;;;;;;;16.70;12.37;;;;;;;14.98;98.49;99396.08;1814631;79;21205;-57
2022/04/14 02:02:33;;;;;;;18.70;13.98;;;;;;;14.91;97.84;99391.99;1812775;79;21092;-58
2022/04/14 02:04:59;;;;;;;23.60;14.33;;;;;;;14.98;96.44;99383.48;1801673;78;22147;-57
2022/04/14 02:07:26;;;;;;;24.23;15.03;;;;;;;14.86;99.03;99384.03;1812677;79;21032;-58
2022/04/14 02:09:53;;;;;;;19.60;13.33;;;;;;;14.96;98.02;99384.21;1810773;79;21709;-58
2022/04/14 02:12:21;;;;;;;21.50;15.03;;;;;;;15.07;97.75;99389.94;1812442;79;21268;-58
2022/04/14 02:14:48;;;;;;;24.93;17.33;;;;;;;15.12;96.67;99387.95;1811771;79;21328;-58
2022/04/14 02:17:16;;;;;;;21.10;13.97;;;;;;;15.26;94.27;99385.31;1812480;79;21159;-58
2022/04/14 02:19:43;;;;;;;22.77;15.53;;;;;;;15.13;95.04;99389.53;1812008;79;21262;-58
2022/04/14 02:22:09;;;;;;;22.27;14.40;;;;;;;15.22;93.85;99394.16;1812222;79;20989;-58
2022/04/14 02:24:41;;;;;;;21.27;15.10;;;;;;;15.20;94.79;99406.74;1812263;77;21222;-61
2022/04/14 02:27:09;;;;;;;18.48;13.90;;;;;;;15.29;93.79;99390.09;1812715;79;21458;-59
2022/04/14 02:29:37;;;;;;;24.23;13.50;;;;;;;15.21;94.47;99387.84;1812449;79;21468;-58
2022/04/14 02:32:05;;;;;;;19.00;13.25;;;;;;;15.10;96.61;99384.23;1812172;79;21475;-58
2022/04/14 02:34:32;;;;;;;21.77;15.07;;;;;;;15.09;95.38;99390.52;1812319;79;20954;-64
2022/04/14 02:36:59;;;;;;;24.10;13.23;;;;;;;15.16;94.94;99387.24;1812091;79;21728;-58
2022/04/14 02:39:25;;;;;;;21.00;14.10;;;;;;;15.25;93.51;99383.72;1812455;79;21115;-58
2022/04/14 02:41:52;;;;;;;19.23;13.80;;;;;;;15.12;94.69;99387.95;1810979;79;21166;-58
2022/04/14 02:44:21;;;;;;;21.25;14.03;;;;;;;15.07;95.17;99392.56;1812369;79;21533;-58
2022/04/14 02:46:49;;;;;;;19.07;12.97;;;;;;;15.16;93.60;99396.43;1812041;79;21462;-58
2022/04/14 02:49:15;;;;;;;21.97;14.13;;;;;;;15.20;93.48;99399.39;1813011;79;21859;-58
2022/04/14 02:51:43;;;;;;;21.73;13.73;;;;;;;15.16;93.14;99405.62;1812679;79;21110;-57
2022/04/14 02:54:10;;;;;;;21.55;13.28;;;;;;;15.08;94.46;99400.74;1812571;79;21943;-58
2022/04/14 02:56:37;;;;;;;19.03;12.60;;;;;;;14.99;95.67;99404.75;1812140;78;21041;-59
2022/04/14 02:59:04;;;;;;;18.92;12.45;;;;;;;14.96;96.98;99402.58;1812545;79;21563;-58
2022/04/14 03:01:31;;;;;;;22.25;14.55;;;;;;;15.16;96.31;99410.08;1795941;78;21058;-58
2022/04/14 03:03:58;;;;;;;19.95;13.43;;;;;;;15.18;96.39;99409.31;1791878;78;21069;-59
2022/04/14 03:06:25;;;;;;;19.87;13.33;;;;;;;15.06;97.66;99414.60;1788078;80;21213;-58
2022/04/14 03:08:53;;;;;;;21.07;13.90;;;;;;;15.03;99.05;99416.38;1789523;78;21214;-57
2022/04/14 03:11:20;;;;;;;20.77;13.10;;;;;;;15.10;98.01;99418.35;1789964;78;22224;-58
2022/04/14 03:13:48;;;;;;;22.03;14.60;;;;;;;15.01;99.89;99417.92;1782225;78;21798;-58
2022/04/14 03:16:15;;;;;;;21.07;13.83;;;;;;;14.98;100.00;99413.66;1788278;80;21230;-58
2022/04/14 03:18:43;;;;;;;21.87;15.13;;;;;;;15.04;100.00;99417.47;1789624;78;21200;-59
2022/04/14 03:21:11;;;;;;;24.70;14.73;;;;;;;14.87;100.00;99426.29;1788001;79;21663;-58
2022/04/14 03:23:39;;;;;;;23.13;15.90;;;;;;;14.63;100.00;99424.22;1787904;80;22026;-59
2022/04/14 03:26:08;;;;;;;24.17;15.03;;;;;;;14.62;100.00;99422.60;1787988;80;21900;-59
2022/04/14 03:28:36;;;;;;;22.77;15.13;;;;;;;14.45;100.00;99432.45;1787646;80;21001;-60
2022/04/14 03:31:04;;;;;;;21.50;14.70;;;;;;;14.63;100.00;99432.09;1788003;80;21257;-63
2022/04/14 03:33:33;;;;;;;22.23;14.17;;;;;;;14.79;100.00;99439.25;1789812;78;22076;-59
2022/04/14 03:36:00;;;;;;;20.80;13.57;;;;;;;14.87;100.00;99444.14;1776854;80;21151;-58
2022/04/14 03:38:27;;;;;;;23.50;15.40;;;;;;;15.05;100.00;99440.57;1790192;78;21152;-59
2022/04/14 03:40:54;;;;;;;29.07;16.90;;;;;;;14.98;100.00;99453.02;1786691;79;21228;-64
2022/04/14 03:43:20;;;;;;;20.70;13.97;;;;;;;15.14;100.00;99455.44;1787945;80;21199;-59
2022/04/14 03:45:48;;;;;;;22.50;15.83;;;;;;;15.16;100.00;99441.58;1789711;78;21314;-59
2022/04/14 03:48:14;;;;;;;22.17;15.27;;;;;;;15.01;100.00;99457.30;1788134;79;21062;-58
2022/04/14 03:50:41;;;;;;;21.70;15.60;;;;;;;15.22;100.00;99454.55;1789811;78;21218;-58
2022/04/14 03:53:07;;;;;;;22.30;14.50;;;;;;;15.21;100.00;99450.86;1787471;80;21405;-59
2022/04/14 03:55:34;;;;;;;21.15;14.63;;;;;;;15.36;100.00;99455.61;1789791;78;21719;-59
2022/04/14 03:58:01;;;;;;;18.93;13.30;;;;;;;15.47;100.00;99450.83;1777115;79;21019;-60
2022/04/14 04:00:29;;;;;;;21.03;14.73;;;;;;;15.29;100.00;99457.05;1790027;78;21053;-58
2022/04/14 04:02:55;;;;;;;19.00;13.87;;;;;;;15.27;100.00;99454.66;1789830;78;21787;-59
2022/04/14 04:05:22;;;;;;;21.77;14.13;;;;;;;15.48;100.00;99461.61;1789367;78;21173;-59
2022/04/14 04:07:49;;;;;;;20.97;14.73;;;;;;;15.47;100.00;99460.81;1789671;78;21236;-59
2022/04/14 04:10:16;;;;;;;18.87;14.27;;;;;;;15.57;99.09;99461.53;1791511;78;21179;-58
2022/04/14 04:12:44;;;;;;;21.13;15.37;;;;;;;15.67;98.57;99461.73;1787909;80;21183;-58
2022/04/14 04:15:12;;;;;;;21.70;15.77;;;;;;;15.67;96.98;99468.81;1787639;80;21263;-64
2022/04/14 04:17:40;;;;;;;24.37;16.90;;;;;;;15.97;95.01;99463.30;1789549;78;22067;-59
2022/04/14 04:20:09;;;;;;;25.73;17.57;;;;;;;16.07;94.29;99465.30;1789848;78;21856;-59
2022/04/14 04:22:36;;;;;;;22.20;15.50;;;;;;;15.89;96.64;99463.69;1789898;78;21248;-59
2022/04/14 04:25:07;;;;;;;21.93;16.00;;;;;;;16.01;96.68;99469.67;1787479;80;21224;-65
2022/04/14 04:27:35;;;;;;;20.20;15.07;;;;;;;16.03;95.87;99472.88;1788098;80;22638;-59
2022/04/14 04:30:05;;;;;;;20.60;15.00;;;;;;;16.04;96.92;99472.63;1777294;80;21163;-58
2022/04/14 04:32:34;;;;;;;19.30;13.63;;;;;;;16.24;94.66;99472.14;1787569;78;21160;-58
2022/04/14 04:35:02;;;;;;;20.57;14.73;;;;;;;16.32;93.60;99472.78;1778654;78;21279;-64
2022/04/14 04:37:30;;;;;;;22.03;15.20;;;;;;;16.35;94.43;99467.05;1789757;78;20883;-58
2022/04/14 04:39:57;;;;;;;20.50;15.93;;;;;;;16.24;96.43;99470.83;1791652;78;21689;-58
2022/04/14 04:42:24;;;;;;;21.07;14.50;;;;;;;16.32;97.00;99474.89;1790274;78;22300;-58
2022/04/14 04:44:52;;;;;;;19.80;15.53;;;;;;;16.42;97.84;99474.27;1791697;78;21692;-59
2022/04/14 04:47:22;;;;;;;18.87;15.63;;;;;;;16.51;99.07;99478.08;1787524;80;21244;-59
2022/04/14 04:49:51;;;;;;;19.15;16.42;;;;;;;16.03;100.00;99484.17;1789567;78;21322;-60
2022/04/14 04:52:17;;;;;;;24.93;16.47;;;;;;;16.03;100.00;99484.17;1788110;80;20939;-57
2022/04/14 04:54:45;;;;;;;24.60;17.97;;;;;;;16.49;100.00;99482.27;1787719;80;21226;-59
2022/04/14 04:57:12;;;;;;;19.23;16.57;;;;;;;16.56;100.00;99484.75;1787654;80;22191;-59
2022/04/14 04:59:39;;;;;;;21.73;18.13;;;;;;;17.03;100.00;99489.09;1791693;78;21757;-58
2022/04/14 05:02:07;;;;;;;21.47;18.33;;;;;;;17.23;100.00;99488.55;1772334;80;21218;-58
2022/04/14 05:04:33;;;;;;;23.23;18.20;;;;;;;17.28;100.00;99493.62;1758785;80;21247;-58
2022/04/14 05:07:00;;;;;;;24.27;20.37;;;;;;;17.53;100.00;99495.20;1747852;81;21354;-65
2022/04/14 05:09:27;;;;;;;28.80;24.03;;;;;;;17.73;100.00;99493.33;1758649;80;21732;-58
2022/04/14 05:11:55;;;;;;;34.93;28.93;;;;;;;17.89;100.00;99498.25;1760487;79;21378;-57
2022/04/14 05:14:22;;;;;;;29.23;25.63;;;;;;;18.55;100.00;99497.45;1764339;79;21207;-58
2022/04/14 05:16:49;;;;;;;37.03;28.93;;;;;;;18.67;100.00;99495.42;1763811;79;21251;-59
2022/04/14 05:19:16;;;;;;;35.13;29.50;;;;;;;18.78;100.00;99487.06;1758411;81;21776;-59
2022/04/14 05:21:43;;;;;;;31.37;25.07;;;;;;;19.04;100.00;99492.48;1761285;79;21247;-57
2022/04/14 05:24:09;;;;;;;33.30;27.20;;;;;;;18.86;100.00;99503.75;1758393;80;21242;-57
2022/04/14 05:26:37;;;;;;;37.97;28.27;;;;;;;18.86;100.00;99503.75;1758881;80;21354;-58
2022/04/14 05:29:04;;;;;;;33.10;27.20;;;;;;;18.66;100.00;99503.08;1760936;79;21345;-58
2022/04/14 05:31:31;;;;;;;32.53;27.03;;;;;;;19.00;100.00;99505.95;1725616;82;21964;-61
2022/04/14 05:33:57;;;;;;;35.77;29.37;;;;;;;19.04;100.00;99514.41;1728128;81;22008;-57
2022/04/14 05:36:24;;;;;;;33.77;28.40;;;;;;;19.06;100.00;99513.64;1725311;82;21516;-57
2022/04/14 05:38:53;;;;;;;37.23;29.80;;;;;;;19.06;100.00;99513.64;1725717;81;21485;-58
2022/04/14 05:41:19;;;;;;;39.23;28.87;;;;;;;18.91;100.00;99514.89;1724672;82;21429;-57
2022/04/14 05:43:46;;;;;;;31.43;27.13;;;;;;;18.76;100.00;99517.44;1726591;81;22350;-58
2022/04/14 05:46:12;;;;;;;32.37;27.37;;;;;;;18.76;100.00;99517.44;1725420;81;21475;-57
2022/04/14 05:48:40;;;;;;;31.40;26.63;;;;;;;18.95;100.00;99530.48;1725550;81;21433;-57
2022/04/14 05:51:07;;;;;;;37.53;29.77;;;;;;;18.87;100.00;99529.13;1725926;81;21517;-57
2022/04/14 05:53:35;;;;;;;33.77;26.50;;;;;;;18.83;100.00;99535.17;1728082;81;21493;-58
2022/04/14 05:56:02;;;;;;;37.03;30.73;;;;;;;18.72;100.00;99547.51;1724851;82;21414;-57
2022/04/14 05:58:29;;;;;;;31.97;26.60;;;;;;;18.90;100.00;99550.25;1725633;81;21530;-56
2022/04/14 06:00:55;;;;;;;34.17;27.03;;;;;;;18.90;100.00;99550.25;1725555;81;21566;-58
2022/04/14 06:03:24;;;;;;;34.47;28.10;;;;;;;19.09;99.14;99555.41;1728889;82;22577;-56
2022/04/14 06:05:51;;;;;;;31.10;24.47;;;;;;;19.09;99.14;99555.41;1729524;82;21560;-58
2022/04/14 06:08:19;;;;;;;30.33;25.10;;;;;;;18.93;100.00;99558.98;1729739;81;21448;-57
2022/04/14 06:10:47;;;;;;;30.13;23.53;;;;;;;18.64;100.00;99551.39;1728873;82;21535;-61
2022/04/14 06:13:14;;;;;;;26.33;22.57;;;;;;;18.45;100.00;99569.98;1728949;82;21495;-56
2022/04/14 06:15:40;;;;;;;30.93;24.60;;;;;;;18.64;100.00;99575.67;1729079;82;22429;-56
2022/04/14 06:18:08;;;;;;;29.77;23.20;;;;;;;18.64;100.00;99575.67;1729364;82;21502;-57
2022/04/14 06:20:34;;;;;;;27.27;21.97;;;;;;;18.84;99.15;99577.69;1729059;82;21530;-58
2022/04/14 06:23:03;;;;;;;25.03;22.33;;;;;;;18.75;100.00;99572.06;1729679;82;23030;-58
2022/04/14 06:25:30;;;;;;;28.07;21.87;;;;;;;18.63;99.64;99581.45;1729080;82;21738;-56
2022/04/14 06:27:56;;;;;;;29.17;22.27;;;;;;;18.63;99.64;99581.45;1729698;82;21551;-56
2022/04/14 06:30:23;;;;;;;22.33;20.03;;;;;;;18.62;100.00;99590.95;1755349;81;21386;-57
2022/04/14 06:33:02;;;;;;;22.33;19.93;;;;;;;18.62;100.00;99590.95;1755017;80;21499;-56
2022/04/14 06:35:29;;;;;;;23.03;20.23;;;;;;;18.59;100.00;99583.00;1754996;80;21644;-56
2022/04/14 06:37:57;;;;;;;28.50;23.20;;;;;;;18.69;100.00;99594.97;1755250;80;21409;-57
2022/04/14 06:40:25;;;;;;;29.03;21.80;;;;;;;18.46;100.00;99593.99;1754829;80;21339;-57
2022/04/14 06:42:55;;;;;;;28.30;23.53;;;;;;;17.88;100.00;99602.92;1753303;81;21442;-57
2022/04/14 06:45:21;;;;;;;27.73;23.13;;;;;;;17.88;100.00;99602.92;1754181;80;21985;-57
2022/04/14 06:47:49;;;;;;;26.47;20.77;;;;;;;18.27;100.00;99600.68;1754625;80;21561;-56
2022/04/14 06:50:17;;;;;;;24.90;20.50;;;;;;;18.21;100.00;99599.82;1754829;80;21464;-56
2022/04/14 06:52:45;;;;;;;24.43;21.27;;;;;;;18.21;100.00;99599.82;1754878;80;22079;-57
2022/04/14 06:55:15;;;;;;;25.73;22.00;;;;;;;18.42;100.00;99604.78;1754592;81;21354;-61
2022/04/14 06:57:41;;;;;;;27.00;22.17;;;;;;;18.42;100.00;99604.78;1755107;79;21501;-57
2022/04/14 07:00:10;;;;;;;24.77;19.97;;;;;;;18.18;100.00;99611.69;1754930;80;22052;-55
2022/04/14 07:02:50;;;;;;;27.50;22.93;;;;;;;18.05;100.00;99613.91;1753096;80;21221;-55
2022/04/14 07:05:17;;;;;;;27.43;22.43;;;;;;;18.08;100.00;99610.25;1750210;81;22013;-57
2022/04/14 07:07:45;;;;;;;28.57;23.37;;;;;;;18.14;100.00;99609.24;1750620;81;22390;-56
2022/04/14 07:10:13;;;;;;;27.13;23.23;;;;;;;18.14;100.00;99609.24;1750893;81;21501;-58
2022/04/14 07:12:41;;;;;;;27.70;23.87;;;;;;;18.11;100.00;99606.33;1750473;81;21644;-57
2022/04/14 07:15:09;;;;;;;27.93;21.13;;;;;;;17.99;100.00;99623.59;1763600;79;22042;-55
2022/04/14 07:17:37;;;;;;;24.50;21.57;;;;;;;17.89;100.00;99618.22;1764010;80;22322;-56
2022/04/14 07:20:05;;;;;;;25.90;20.73;;;;;;;17.91;100.00;99614.27;1764165;80;21957;-55
2022/04/14 07:22:47;;;;;;;24.60;19.23;;;;;;;18.15;100.00;99631.95;1764034;81;21730;-55
2022/04/14 07:25:15;;;;;;;26.30;21.33;;;;;;;17.68;100.00;99601.32;1755913;81;22263;-57
2022/04/14 07:27:43;;;;;;;24.27;20.87;;;;;;;17.81;100.00;99621.30;1763716;81;21660;-55
2022/04/14 07:30:12;;;;;;;24.93;20.67;;;;;;;18.04;100.00;99626.83;1764209;81;22228;-55
2022/04/14 07:32:43;;;;;;;24.40;19.40;;;;;;;18.04;100.00;99626.83;1763896;80;21672;-62
2022/04/14 07:35:09;;;;;;;22.53;18.77;;;;;;;18.19;100.00;99634.91;1794742;79;22840;-56
2022/04/14 07:37:37;;;;;;;23.30;19.73;;;;;;;18.45;100.00;99632.00;1763911;80;22231;-57
2022/04/14 07:40:06;;;;;;;24.97;20.10;;;;;;;18.56;100.00;99636.81;1764378;81;21644;-57
2022/04/14 07:42:38;;;;;;;23.50;18.90;;;;;;;18.41;100.00;99634.83;1764031;80;21571;-61
2022/04/14 07:45:06;;;;;;;23.83;19.92;;;;;;;18.63;100.00;99638.73;1754051;81;22778;-57
2022/04/14 07:47:33;;;;;;;23.63;19.50;;;;;;;18.18;100.00;99636.75;1764203;80;20989;-55
2022/04/14 07:50:00;;;;;;;21.63;18.83;;;;;;;18.27;100.00;99634.98;1753252;81;21610;-56
2022/04/14 07:52:26;;;;;;;19.97;17.87;;;;;;;18.43;100.00;99634.86;1764186;80;22120;-55
2022/04/14 07:54:53;;;;;;;20.60;18.40;;;;;;;18.89;100.00;99641.09;1762442;81;21622;-60
2022/04/14 07:57:20;;;;;;;20.07;17.00;;;;;;;18.83;100.00;99638.95;1763742;81;22103;-56
2022/04/14 07:59:46;;;;;;;18.73;16.43;;;;;;;19.17;100.00;99632.85;1764176;80;21645;-55
2022/04/14 08:02:13;;;;;;;25.97;19.17;;;;;;;19.03;100.00;99646.75;1767299;80;21732;-56
2022/04/14 08:04:41;;;;;;;21.50;17.97;;;;;;;19.14;100.00;99635.20;1781680;80;22154;-55
2022/04/14 08:07:09;;;;;;;20.63;18.53;;;;;;;19.27;100.00;99649.28;1781720;80;21729;-62
2022/04/14 08:09:37;;;;;;;21.40;17.80;;;;;;;19.32;100.00;99641.90;1781510;80;21414;-56
2022/04/14 08:12:06;;;;;;;21.57;18.93;;;;;;;19.32;100.00;99641.90;1782363;80;21496;-55
2022/04/14 08:14:34;;;;;;;27.50;17.37;;;;;;;19.27;100.00;99651.92;1789509;78;21226;-56
2022/04/14 08:17:04;;;;;;;24.50;19.00;;;;;;;19.35;100.00;99652.76;1779114;78;22229;-56
2022/04/14 08:19:34;;;;;;;22.53;18.50;;;;;;;19.55;100.00;99649.45;1789965;78;21552;-56
2022/04/14 08:22:04;;;;;;;25.90;18.47;;;;;;;19.85;100.00;99654.62;1777803;79;21757;-55
2022/04/14 08:24:34;;;;;;;20.57;16.70;;;;;;;19.89;100.00;99659.69;1791649;78;20931;-55
2022/04/14 08:27:02;;;;;;;20.17;16.77;;;;;;;19.78;100.00;99656.73;1781174;78;20974;-55
2022/04/14 08:29:30;;;;;;;21.40;18.10;;;;;;;20.00;100.00;99665.28;1789327;78;21021;-57
2022/04/14 08:31:58;;;;;;;23.10;18.70;;;;;;;19.87;100.00;99664.43;1789960;78;21069;-56
2022/04/14 08:34:24;;;;;;;25.23;20.47;;;;;;;20.08;100.00;99651.55;1788161;80;21085;-56
2022/04/14 08:36:53;;;;;;;20.60;16.37;;;;;;;20.20;100.00;99672.48;1788079;78;21586;-56
2022/04/14 08:39:20;;;;;;;20.20;16.67;;;;;;;20.19;97.85;99673.52;1787639;80;21513;-60
2022/04/14 08:41:53;;;;;;;19.03;16.23;;;;;;;20.19;99.47;99673.52;1789679;78;21044;-57
2022/04/14 08:44:22;;;;;;;21.05;17.82;;;;;;;20.63;95.50;99681.85;1788039;80;28129;-59
2022/04/14 08:46:50;;;;;;;18.45;15.35;;;;;;;20.56;88.94;99686.61;1789989;78;21021;-56
2022/04/14 08:49:17;;;;;;;16.10;13.50;;;;;;;20.65;91.28;99683.72;1790248;78;21402;-57
2022/04/14 08:51:44;;;;;;;17.73;14.97;;;;;;;20.55;92.30;99680.27;1787239;80;21256;-56
2022/04/14 08:54:13;;;;;;;20.17;17.10;;;;;;;20.64;91.68;99683.97;1789902;78;20919;-56
2022/04/14 08:56:41;;;;;;;19.53;15.93;;;;;;;20.41;93.82;99682.58;1763476;78;20876;-56
2022/04/14 08:59:08;;;;;;;24.77;20.23;;;;;;;20.46;95.13;99685.79;1787940;80;21005;-60
2022/04/14 09:01:36;;;;;;;18.00;15.47;;;;;;;20.56;93.64;99690.58;1789400;78;20989;-57
2022/04/14 09:04:04;;;;;;;19.23;16.23;;;;;;;20.57;91.81;99693.52;1787974;80;21248;-56
2022/04/14 09:06:32;;;;;;;21.80;17.30;;;;;;;20.60;93.50;99697.47;1790011;78;20974;-57
2022/04/14 09:09:00;;;;;;;18.37;15.77;;;;;;;20.64;96.30;99695.88;1776395;80;21512;-62
2022/04/14 09:11:30;;;;;;;14.83;13.23;;;;;;;20.81;96.98;99701.74;1789444;78;20967;-56
2022/04/14 09:13:58;;;;;;;19.03;14.93;;;;;;;20.89;94.71;99694.59;1788185;80;21057;-56
2022/04/14 09:16:25;;;;;;;20.90;17.23;;;;;;;20.63;91.31;99707.55;1790741;78;21124;-57
2022/04/14 09:18:55;;;;;;;22.10;14.90;;;;;;;20.37;90.83;99699.52;1787825;80;21147;-57
2022/04/14 09:21:22;;;;;;;17.33;14.00;;;;;;;20.71;88.84;99708.88;1788272;80;20967;-61
2022/04/14 09:23:57;;;;;;;15.10;13.50;;;;;;;20.76;87.94;99715.50;1789456;78;21484;-56
2022/04/14 09:26:23;;;;;;;15.37;12.10;;;;;;;20.71;87.88;99716.29;1788233;78;20950;-57
2022/04/14 09:29:01;;;;;;;15.70;13.13;;;;;;;20.68;84.16;99721.31;1791550;78;21239;-56
2022/04/14 09:31:28;;;;;;;17.87;14.30;;;;;;;20.71;82.51;99720.80;1789334;78;20924;-60
2022/04/14 09:33:55;;;;;;;14.60;10.47;;;;;;;20.43;85.47;99726.80;1787668;80;21396;-57
2022/04/14 09:36:23;;;;;;;14.73;11.60;;;;;;;20.58;88.88;99731.38;1790097;78;21038;-56
2022/04/14 09:39:05;;;;;;;13.07;10.90;;;;;;;20.53;87.25;99729.52;1789891;78;20914;-57
2022/04/14 09:41:41;;;;;;;13.40;10.77;;;;;;;20.39;93.22;99732.36;1788940;78;21270;-56
2022/04/14 09:44:12;;;;;;;11.93;10.33;;;;;;;20.65;92.15;99734.05;1780511;78;21437;-57
2022/04/14 09:46:45;;;;;;;18.03;13.30;;;;;;;20.68;96.41;99739.86;1790193;78;21182;-62
2022/04/14 09:49:15;;;;;;;14.87;12.30;;;;;;;20.91;89.23;99746.01;1787962;80;20962;-58
2022/04/14 09:51:48;;;;;;;13.10;10.73;;;;;;;20.82;87.68;99747.56;1816128;77;20974;-56
2022/04/14 09:54:19;;;;;;;16.53;12.60;;;;;;;20.69;91.14;99753.38;1790224;78;22268;-56
2022/04/14 09:56:52;;;;;;;11.88;10.32;;;;;;;20.65;94.81;99758.41;1787271;80;21009;-58
2022/04/14 09:59:26;;;;;;;15.33;12.00;;;;;;;20.55;95.32;99759.16;1788704;80;21468;-56
2022/04/14 10:02:14;;;;;;;16.30;11.63;;;;;;;20.65;91.75;99771.12;1786687;80;20911;-56
2022/04/14 10:04:44;;;;;;;13.70;10.63;;;;;;;20.74;88.85;99768.75;1789664;78;21060;-57
2022/04/14 10:07:15;;;;;;;17.43;10.07;;;;;;;20.59;85.43;99776.12;1791916;78;21296;-56
2022/04/14 10:09:45;;;;;;;11.37;10.10;;;;;;;20.44;86.47;99777.90;1789245;78;20978;-59
2022/04/14 10:12:27;;;;;;;12.07;9.50;;;;;;;20.24;85.49;99773.33;1790012;78;20959;-59
2022/04/14 10:15:10;;;;;;;14.40;10.57;;;;;;;20.21;88.93;99777.81;1789559;78;21050;-57
2022/04/14 10:17:38;;;;;;;12.88;9.78;;;;;;;20.51;94.52;99770.02;1787326;80;20919;-57
2022/04/14 10:20:08;;;;;;;12.20;10.40;;;;;;;20.78;94.42;99776.97;1788352;80;21301;-56
2022/04/14 10:22:38;;;;;;;13.55;10.15;;;;;;;20.84;93.59;99777.25;1789696;78;21559;-56
2022/04/14 10:25:07;;;;;;;14.03;11.73;;;;;;;20.89;89.21;99787.84;1788410;80;20919;-63
2022/04/14 10:27:36;;;;;;;12.67;10.13;;;;;;;20.95;85.85;99782.02;1787793;80;21483;-56
2022/04/14 10:30:04;;;;;;;15.80;10.90;;;;;;;21.16;79.91;99792.91;1779100;78;21042;-55
2022/04/14 10:32:30;;;;;;;12.37;9.17;;;;;;;21.23;83.00;99793.45;1787817;80;21836;-56
2022/04/14 10:34:59;;;;;;;12.03;9.40;;;;;;;21.19;76.18;99795.05;1789829;78;20962;-55
2022/04/14 10:37:32;;;;;;;14.33;12.13;;;;;;;21.35;77.81;99799.84;1787529;80;20959;-56
2022/04/14 10:39:59;;;;;;;12.90;10.57;;;;;;;21.35;74.20;99799.84;1778917;78;21105;-56
2022/04/14 10:42:27;;;;;;;12.93;11.20;;;;;;;21.25;74.73;99803.78;1791725;78;20963;-57
2022/04/14 10:44:54;;;;;;;13.03;10.30;;;;;;;21.00;74.53;99810.66;1790501;78;21152;-62
2022/04/14 10:47:56;;;;;;;13.53;10.23;;;;;;;20.87;75.12;99809.82;1791162;78;20995;-56
2022/04/14 10:50:32;;;;;;;10.40;8.63;;;;;;;20.80;75.83;99805.33;1788151;80;20998;-55
2022/04/14 10:53:09;;;;;;;10.57;9.20;;;;;;;20.93;74.07;99805.34;1787154;79;21562;-56
2022/04/14 10:55:43;;;;;;;12.33;10.40;;;;;;;20.82;75.07;99808.49;1787808;80;21547;-56
2022/04/14 10:58:31;;;;;;;9.90;8.77;;;;;;;20.71;75.27;99811.64;1788172;80;21516;-56
2022/04/14 11:00:58;;;;;;;12.30;10.47;;;;;;;20.55;79.13;99810.01;1739223;78;21015;-56
2022/04/14 11:03:49;;;;;;;11.67;10.47;;;;;;;21.02;77.77;99817.80;1787903;80;21049;-56
2022/04/14 11:06:47;;;;;;;13.28;9.43;;;;;;;21.05;76.46;99818.60;1790439;78;20966;-56
2022/04/14 11:09:54;;;;;;;10.93;8.97;;;;;;;20.49;80.76;99813.15;1788458;80;21484;-57
2022/04/14 11:12:43;;;;;;;13.87;10.90;;;;;;;20.63;77.99;99832.80;1781701;80;21540;-57
2022/04/14 11:15:12;;;;;;;12.60;8.80;;;;;;;20.68;77.29;99827.25;1780903;78;21575;-55
2022/04/14 11:17:53;;;;;;;12.37;9.80;;;;;;;20.82;79.27;99825.18;1763610;80;21024;-56
2022/04/14 11:20:37;;;;;;;13.60;10.37;;;;;;;20.35;81.92;99839.81;1789669;78;20993;-64
2022/04/14 11:23:17;;;;;;;10.60;9.20;;;;;;;20.39;85.66;99829.77;1788116;80;21892;-56